Latest Weather Observations for Sydney - Observatory Hill

IDN60801

Issued at 3:35 pm EST Saturday 20 September 2014 (issued every 30 minutes, with the page automatically refreshed every 10 minutes)

About weather observations | Map of weather stations | Latest weather observations for NSW | Other Formats
Station Details ID: 066062 Name: SYDNEY (OBSERVATORY HILL) Lat: -33.86 Lon: 151.21 Height: 39.0 m
Data from the previous 72 hours. | See also: Recent months at Sydney - Observatory Hill

* Apparent temperature (App Temp) for Sydney - Observatory Hill is calculated using temperature observations collected at Sydney - Observatory Hill and wind observations collected at Fort Denison, as wind observations are not currently provided for Sydney - Observatory Hill.

Date/Time
EST
Temp
°C
App
Temp
°C
Dew
Point
Rel
Hum
%
Delta-T
°C
Wind Press
QNH
hPa
Press
MSL
hPa
Rain
since 9 am
mm
Dir
 
Spd
km/h
Gust
km/h
Spd
kts
Gust
kts
20/03:30pm 18.2 13.2 4.4 40 6.5 SSE 20 - 11 - 1023.7 1023.6 0.0
20/03:00pm 19.4 14.3 5.8 41 6.7 SSE 22 - 12 - 1023.8 1023.7 0.0
20/02:30pm 18.5 13.7 4.7 40 6.6 SSE 19 - 10 - 1023.6 1023.5 0.0
20/02:00pm 19.5 14.6 6.9 44 6.3 SSE 22 - 12 - 1023.7 1023.6 0.0
20/01:30pm 19.9 14.9 6.6 42 6.7 SSE 22 - 12 - 1023.9 1023.8 0.0
20/01:00pm 18.8 13.5 4.9 40 6.7 SSE 22 - 12 - 1024.0 1023.9 0.0
20/12:30pm 19.6 15.7 7.0 44 6.4 S 17 - 9 - 1024.1 1024.0 0.0
20/12:00pm 19.1 14.5 6.6 44 6.2 S 20 - 11 - 1024.2 1024.1 0.0
20/11:30am 19.3 14.3 8.0 48 5.8 S 24 - 13 - 1024.3 1024.2 0.0
20/11:00am 18.3 14.0 8.0 51 5.2 S 20 - 11 - 1024.6 1024.5 0.0
20/10:30am 17.7 13.7 9.1 57 4.5 S 20 - 11 - 1024.6 1024.5 0.0
20/10:00am 17.8 13.8 8.4 54 4.8 S 19 - 10 - 1024.6 1024.5 0.0
20/09:30am 17.6 13.4 7.4 51 5.1 S 19 - 10 - 1024.6 1024.5 0.0
20/09:00am 15.4 11.8 5.0 50 4.9 W 13 - 7 - 1024.6 1024.5 0.0
20/08:30am 14.8 10.8 5.1 52 4.6 W 15 - 8 - 1024.4 1024.3 0.0
20/08:00am 13.5 9.0 4.4 54 4.2 W 17 - 9 - 1024.1 1024.0 0.0
20/07:30am 12.4 8.0 4.6 59 3.6 W 17 - 9 - 1023.8 1023.7 0.0
20/07:00am 11.2 7.4 5.9 70 2.5 WNW 15 - 8 - 1023.4 1023.3 0.0
20/06:30am 9.7 5.2 6.2 79 1.6 W 19 - 10 - 1023.1 1023.0 0.0
20/06:00am 9.3 5.5 6.0 80 1.5 WNW 15 - 8 - 1022.5 1022.4 0.0
20/05:30am 9.2 5.7 5.4 77 1.7 WNW 13 - 7 - 1022.0 1021.9 0.0
20/05:00am 9.3 5.5 6.0 80 1.5 W 15 - 8 - 1021.5 1021.4 0.0
20/04:30am 9.5 6.1 6.0 79 1.6 WNW 13 - 7 - 1021.2 1021.1 0.0
20/04:00am 9.9 5.8 6.1 77 1.8 W 17 - 9 - 1020.9 1020.8 0.0
20/03:30am 9.9 5.6 5.3 73 2.1 W 17 - 9 - 1020.9 1020.8 0.0
20/03:00am 10.0 5.7 5.2 72 2.2 W 17 - 9 - 1021.0 1020.9 0.0
20/02:30am 9.9 5.4 6.1 77 1.8 W 19 - 10 - 1021.1 1021.0 0.0
20/02:00am 10.1 6.0 6.1 76 1.8 W 17 - 9 - 1021.3 1021.2 0.0
20/01:30am 10.4 5.9 6.2 75 2.0 W 19 - 10 - 1021.6 1021.5 0.0
20/01:00am 10.6 6.6 6.6 76 1.9 W 17 - 9 - 1021.7 1021.6 0.0
20/12:30am 10.9 6.9 6.5 74 2.1 W 17 - 9 - 1021.9 1021.8 0.0
20/12:00am 11.4 7.5 6.9 74 2.1 W 17 - 9 - 1021.9 1021.8 0.0
 
Date/Time
EST
Temp
°C
App
Temp
°C
Dew
Point
Rel
Hum
%
Delta-T
°C
Wind Press
QNH
hPa
Press
MSL
hPa
Rain
since 9 am
mm
Dir
 
Spd
km/h
Gust
km/h
Spd
kts
Gust
kts
19/11:30pm 12.1 8.7 7.8 75 2.1 W 15 - 8 - 1022.0 1021.9 0.0
19/11:00pm 12.5 9.5 7.6 72 2.4 W 13 - 7 - 1021.9 1021.8 0.0
19/10:30pm 13.3 11.8 6.9 65 3.1 WSW 4 - 2 - 1022.1 1022.0 0.0
19/10:00pm 14.1 12.4 6.0 58 3.9 NNW 4 - 2 - 1022.1 1022.0 0.0
19/09:30pm 14.2 12.5 5.8 57 4.0 S 4 - 2 - 1022.0 1021.9 0.0
19/09:00pm 14.4 12.2 5.5 55 4.2 SSE 6 - 3 - 1021.8 1021.7 0.0
19/08:30pm 14.8 12.4 5.3 53 4.5 SE 7 - 4 - 1021.6 1021.5 0.0
19/08:00pm 15.3 13.3 6.1 54 4.4 SE 6 - 3 - 1021.4 1021.3 0.0
19/07:30pm 15.3 13.1 6.1 54 4.4 SE 7 - 4 - 1021.1 1021.0 0.0
19/07:00pm 15.9 12.7 4.9 48 5.2 SE 11 - 6 - 1020.8 1020.7 0.0
19/06:30pm 16.3 13.0 4.4 45 5.6 ESE 11 - 6 - 1020.4 1020.3 0.0
19/06:00pm 16.6 12.4 4.0 43 5.9 ESE 15 - 8 - 1020.0 1019.9 0.0
19/05:30pm 16.6 12.4 4.0 43 5.9 ESE 15 - 8 - 1019.5 1019.5 0.0
19/05:00pm 16.8 12.7 4.2 43 5.9 E 15 - 8 - 1019.1 1019.1 0.0
19/04:30pm 17.2 12.7 4.2 42 6.1 E 17 - 9 - 1018.8 1018.8 0.0
19/04:00pm 17.4 12.6 4.4 42 6.1 E 19 - 10 - 1018.7 1018.7 0.0
19/03:30pm 17.8 12.7 4.0 40 6.5 E 20 - 11 - 1018.5 1018.5 0.0
19/03:00pm 18.2 11.5 1.7 33 7.4 E 26 - 14 - 1018.5 1018.5 0.0
19/02:30pm 21.2 18.1 0.4 25 9.4 NE 6 - 3 - 1018.6 1018.6 0.0
19/02:00pm 21.9 18.4 1.0 25 9.6 NW 9 - 5 - 1018.8 1018.8 0.0
19/01:30pm 20.9 16.9 0.2 25 9.3 W 11 - 6 - 1019.2 1019.2 0.0
19/01:00pm 20.8 16.3 2.1 29 8.7 NNW 15 - 8 - 1019.6 1019.6 0.0
19/12:30pm 19.5 15.3 1.9 31 8.1 NNW 13 - 7 - 1020.1 1020.0 0.0
19/12:00pm 19.6 16.3 2.5 32 7.9 NW 9 - 5 - 1020.6 1020.5 0.0
19/11:30am 19.0 15.7 2.4 33 7.6 W 9 - 5 - 1021.1 1021.0 0.0
19/11:00am 18.2 14.7 3.3 37 6.9 W 11 - 6 - 1021.6 1021.5 0.0
19/10:30am 17.3 13.9 3.9 41 6.3 WNW 11 - 6 - 1021.9 1021.8 0.0
19/10:00am 17.1 13.5 4.8 44 5.8 WNW 13 - 7 - 1022.2 1022.1 0.0
19/09:30am 15.8 12.1 4.2 46 5.4 WNW 13 - 7 - 1022.3 1022.2 0.0
19/09:00am 14.7 9.9 4.4 50 4.8 W 19 - 10 - 1022.4 1022.3 0.0
19/08:30am 13.3 8.0 2.8 49 4.6 W 20 - 11 - 1022.4 1022.3 0.0
19/08:00am 12.5 6.8 2.7 51 4.3 W 22 - 12 - 1022.3 1022.2 0.0
19/07:30am 11.3 5.6 2.6 55 3.8 W 22 - 12 - 1022.1 1022.0 0.0
19/07:00am 10.3 4.9 2.7 59 3.3 W 20 - 11 - 1022.1 1022.0 0.0
19/06:30am 9.5 3.8 3.0 64 2.8 W 22 - 12 - 1022.0 1021.9 0.0
19/06:00am 9.2 3.8 2.5 63 2.8 W 20 - 11 - 1021.6 1021.5 0.0
19/05:30am 9.5 4.1 2.6 62 2.9 W 20 - 11 - 1021.4 1021.3 0.0
19/05:00am 9.7 4.6 2.8 62 2.9 W 19 - 10 - 1021.2 1021.1 0.0
19/04:30am 9.7 4.4 2.8 62 3.0 W 20 - 11 - 1020.8 1020.7 0.0
19/04:00am 10.0 5.2 2.6 60 3.2 W 17 - 9 - 1020.6 1020.5 0.0
19/03:30am 10.2 5.3 2.3 58 3.4 W 17 - 9 - 1020.3 1020.2 0.0
19/03:00am 10.4 5.5 2.3 57 3.4 W 17 - 9 - 1020.4 1020.3 0.0
19/02:30am 10.9 6.0 2.2 55 3.7 W 17 - 9 - 1020.5 1020.4 0.0
19/02:00am 11.4 6.9 1.9 52 4.0 W 15 - 8 - 1020.7 1020.6 0.0
19/01:30am 11.8 7.4 2.5 53 4.0 W 15 - 8 - 1020.8 1020.7 0.0
19/01:00am 12.0 8.8 3.0 54 3.9 WNW 9 - 5 - 1021.0 1020.9 0.0
19/12:30am 12.4 9.2 3.1 53 4.1 WNW 9 - 5 - 1021.0 1020.9 0.0
19/12:00am 13.0 9.7 2.5 49 4.6 WNW 9 - 5 - 1021.1 1021.0 0.0
 
Date/Time
EST
Temp
°C
App
Temp
°C
Dew
Point
Rel
Hum
%
Delta-T
°C
Wind Press
QNH
hPa
Press
MSL
hPa
Rain
since 9 am
mm
Dir
 
Spd
km/h
Gust
km/h
Spd
kts
Gust
kts
18/11:30pm 12.9 9.3 2.7 50 4.5 W 11 - 6 - 1021.3 1021.2 0.0
18/11:00pm 13.1 9.7 2.1 47 4.8 W 9 - 5 - 1021.3 1021.2 0.0
18/10:30pm 13.4 9.2 1.4 44 5.2 W 13 - 7 - 1021.2 1021.1 0.0
18/10:00pm 13.8 9.5 1.1 42 5.4 W 13 - 7 - 1021.3 1021.2 0.0
18/09:30pm 14.1 9.0 0.7 40 5.7 W 17 - 9 - 1021.4 1021.3 0.0
18/09:00pm 14.5 9.5 1.4 41 5.7 W 17 - 9 - 1021.3 1021.2 0.0
18/08:30pm 15.0 11.8 3.2 45 5.3 WSW 9 - 5 - 1021.2 1021.1 0.0
18/08:00pm 14.8 12.3 3.6 47 5.1 SSW 6 - 3 - 1020.8 1020.7 0.0
18/07:30pm 14.9 11.8 3.4 46 5.2 S 9 - 5 - 1020.3 1020.2 0.0
18/07:00pm 14.9 11.3 3.1 45 5.3 SSE 11 - 6 - 1019.9 1019.8 0.0
18/06:30pm 14.9 10.9 2.8 44 5.4 SSE 13 - 7 - 1019.4 1019.4 0.0
18/06:00pm 14.8 11.5 2.4 43 5.5 SSE 9 - 5 - 1019.2 1019.2 0.0
18/05:30pm 15.2 11.1 2.1 41 5.8 SSE 13 - 7 - 1018.8 1018.8 0.0
18/05:00pm 15.6 10.7 1.7 39 6.1 SE 17 - 9 - 1018.4 1018.4 0.0
18/04:30pm 15.8 10.9 2.2 40 6.1 SE 17 - 9 - 1018.0 1018.0 0.0
18/04:00pm 17.1 11.5 1.1 34 7.0 SE 20 - 11 - 1017.5 1017.5 0.0
18/03:30pm 17.5 10.7 1.1 33 7.3 S 26 - 14 - 1017.4 1017.4 0.0
18/03:00pm 18.4 12.0 1.0 31 7.7 SE 24 - 13 - 1017.1 1017.1 0.0
18/02:30pm 19.9 14.5 2.3 31 8.1 SE 20 - 11 - 1017.0 1017.0 0.0
18/02:00pm 18.8 13.3 0.4 29 8.1 SE 19 - 10 - 1017.1 1017.1 0.0
18/01:30pm 18.7 12.9 2.1 33 7.6 ESE 22 - 12 - 1017.1 1017.1 0.0
18/01:00pm 17.6 11.2 -1.6 27 8.0 ESE 22 - 12 - 1017.3 1017.3 0.0
18/12:30pm 20.0 14.2 -0.1 26 8.9 ESE 20 - 11 - 1017.6 1017.6 0.0
18/12:00pm 19.2 13.8 -1.3 25 8.8 ESE 17 - 9 - 1017.8 1017.8 0.0
18/11:30am 18.7 13.9 -2.8 23 8.9 SSW 13 - 7 - 1017.9 1017.9 0.0
18/11:00am 18.4 13.0 -1.4 26 8.4 SW 17 - 9 - 1018.1 1018.1 0.0
18/10:30am 18.4 12.4 -1.4 26 8.4 SSW 20 - 11 - 1018.3 1018.3 0.0
18/10:00am 17.7 12.0 0.8 32 7.4 WSW 20 - 11 - 1018.4 1018.4 0.0
18/09:30am 16.6 12.0 -1.0 30 7.4 SSW 13 - 7 - 1018.5 1018.5 0.0
18/09:00am 15.6 8.2 -0.6 33 6.8 W 28 - 15 - 1018.6 1018.6 0.0
18/08:30am 14.8 7.7 -0.9 34 6.5 WSW 26 - 14 - 1018.3 1018.3 0.0
18/08:00am 14.2 6.0 -1.0 35 6.2 WSW 32 - 17 - 1018.0 1018.0 0.0
18/07:30am 14.3 6.9 -0.6 36 6.2 W 28 - 15 - 1017.8 1017.8 0.0
18/07:00am 13.7 6.7 -0.3 38 5.8 WSW 26 - 14 - 1017.5 1017.5 0.0
18/06:30am 13.0 6.5 0.4 42 5.3 WSW 24 - 13 - 1017.2 1017.2 0.0
18/06:00am 12.6 8.3 1.0 45 4.9 WSW 13 - 7 - 1017.0 1017.0 0.0
18/05:30am 12.3 8.0 1.3 47 4.7 W 13 - 7 - 1016.7 1016.7 0.0
18/05:00am 12.5 7.9 1.5 47 4.7 WSW 15 - 8 - 1016.6 1016.6 0.0
18/04:30am 12.5 7.9 1.5 47 4.7 WSW 15 - 8 - 1016.3 1016.3 0.0
18/04:00am 12.8 8.2 1.5 46 4.8 SSW 15 - 8 - 1016.1 1016.1 0.0
18/03:30am 13.1 8.1 1.5 45 5.0 SSW 17 - 9 - 1015.7 1015.7 0.0
18/03:00am 12.9 9.5 1.9 47 4.7 WSW 9 - 5 - 1015.7 1015.7 0.0
18/02:30am 13.0 8.7 1.0 44 5.1 WSW 13 - 7 - 1015.5 1015.5 0.0
18/02:00am 13.3 8.7 1.3 44 5.1 W 15 - 8 - 1015.3 1015.3 0.0
18/01:30am 13.4 8.5 2.0 46 5.0 W 17 - 9 - 1015.3 1015.3 0.0
18/01:00am 13.9 8.9 1.2 42 5.5 W 17 - 9 - 1015.4 1015.4 0.0
18/12:30am 14.2 8.8 1.5 42 5.5 W 19 - 10 - 1015.3 1015.3 0.0
18/12:00am 14.7 8.8 1.6 41 5.7 W 22 - 12 - 1015.1 1015.1 0.0
 
Date/Time
EST
Temp
°C
App
Temp
°C
Dew
Point
Rel
Hum
%
Delta-T
°C
Wind Press
QNH
hPa
Press
MSL
hPa
Rain
since 9 am
mm
Dir
 
Spd
km/h
Gust
km/h
Spd
kts
Gust
kts
17/11:30pm 15.1 9.1 0.9 38 6.1 W 22 - 12 - 1014.9 1014.9 0.0
17/11:00pm 15.4 9.2 1.9 40 6.0 W 24 - 13 - 1014.9 1014.9 0.0
17/10:30pm 15.7 9.4 1.8 39 6.1 W 24 - 13 - 1014.8 1014.8 0.0
17/10:00pm 15.8 10.0 2.2 40 6.1 WSW 22 - 12 - 1014.6 1014.6 0.0
17/09:30pm 15.8 11.0 2.6 41 5.9 W 17 - 9 - 1014.5 1014.5 0.0
17/09:00pm 16.0 12.0 3.1 42 5.9 W 13 - 7 - 1014.2 1014.2 0.0
17/08:30pm 16.3 11.5 2.7 40 6.2 W 17 - 9 - 1014.0 1014.0 0.0
17/08:00pm 16.8 11.9 2.0 37 6.6 W 17 - 9 - 1013.8 1013.8 0.0
17/07:30pm 17.2 12.2 1.6 35 7.0 WSW 17 - 9 - 1013.6 1013.6 0.0
17/07:00pm 17.6 12.0 1.2 33 7.3 W 20 - 11 - 1013.0 1013.0 0.0
17/06:30pm 17.9 11.1 1.0 32 7.5 W 26 - 14 - 1012.5 1012.5 0.0
17/06:00pm 18.4 10.8 0.5 30 7.9 W 30 - 16 - 1011.9 1011.9 0.0
17/05:30pm 18.9 10.9 0.5 29 8.1 W 32 - 17 - 1011.5 1011.5 0.0
17/05:00pm 19.3 11.9 -0.7 26 8.7 W 28 - 15 - 1011.3 1011.3 0.0
17/04:30pm 19.3 11.1 -0.7 26 8.7 WSW 32 - 17 - 1010.9 1010.9 0.0
17/04:00pm 20.0 11.4 0.5 27 8.7 W 35 - 19 - 1010.5 1010.5 0.0

Other Formats:

Comma delimited format used in spreadsheet applications
http://www.bom.gov.au/fwo/IDN60801/IDN60801.94768.axf

JavaScript Object Notation format (JSON) in row-major order
http://www.bom.gov.au/fwo/IDN60801/IDN60801.94768.json